sensor_id;sensor_type;location;lat;lon;timestamp;P1;durP1;ratioP1;P2;durP2;ratioP2
53765;SDS011;39682;51.490;7.310;2023-02-15T00:01:39;74.93;;;32.45;;
53765;SDS011;39682;51.490;7.310;2023-02-15T00:04:06;65.30;;;29.33;;
53765;SDS011;39682;51.490;7.310;2023-02-15T00:06:32;63.50;;;26.60;;
53765;SDS011;39682;51.490;7.310;2023-02-15T00:08:59;59.47;;;26.17;;
53765;SDS011;39682;51.490;7.310;2023-02-15T00:11:25;68.82;;;30.75;;
53765;SDS011;39682;51.490;7.310;2023-02-15T00:14:12;57.13;;;25.23;;
53765;SDS011;39682;51.490;7.310;2023-02-15T00:16:38;78.15;;;33.03;;
53765;SDS011;39682;51.490;7.310;2023-02-15T00:19:05;92.38;;;38.45;;
53765;SDS011;39682;51.490;7.310;2023-02-15T00:21:31;59.35;;;26.85;;
53765;SDS011;39682;51.490;7.310;2023-02-15T00:23:58;74.20;;;30.83;;
53765;SDS011;39682;51.490;7.310;2023-02-15T00:26:25;47.17;;;20.85;;
53765;SDS011;39682;51.490;7.310;2023-02-15T00:28:51;35.83;;;17.40;;
53765;SDS011;39682;51.490;7.310;2023-02-15T00:31:17;37.50;;;18.20;;
53765;SDS011;39682;51.490;7.310;2023-02-15T00:33:43;43.33;;;20.15;;
53765;SDS011;39682;51.490;7.310;2023-02-15T00:36:10;43.90;;;20.20;;
53765;SDS011;39682;51.490;7.310;2023-02-15T00:38:36;41.50;;;18.42;;
53765;SDS011;39682;51.490;7.310;2023-02-15T00:41:03;31.88;;;15.80;;
53765;SDS011;39682;51.490;7.310;2023-02-15T00:43:31;30.15;;;14.90;;
53765;SDS011;39682;51.490;7.310;2023-02-15T00:45:57;29.05;;;14.93;;
53765;SDS011;39682;51.490;7.310;2023-02-15T00:48:23;25.80;;;13.98;;
53765;SDS011;39682;51.490;7.310;2023-02-15T00:50:50;24.30;;;13.63;;
53765;SDS011;39682;51.490;7.310;2023-02-15T00:53:16;24.92;;;13.48;;
53765;SDS011;39682;51.490;7.310;2023-02-15T00:55:42;25.75;;;13.68;;
53765;SDS011;39682;51.490;7.310;2023-02-15T00:58:09;28.77;;;13.48;;
53765;SDS011;39682;51.490;7.310;2023-02-15T01:00:35;25.13;;;12.95;;
53765;SDS011;39682;51.490;7.310;2023-02-15T01:03:01;24.27;;;13.32;;
53765;SDS011;39682;51.490;7.310;2023-02-15T01:05:27;24.25;;;13.35;;
53765;SDS011;39682;51.490;7.310;2023-02-15T01:07:54;24.10;;;13.38;;
53765;SDS011;39682;51.490;7.310;2023-02-15T01:10:20;26.63;;;13.10;;
53765;SDS011;39682;51.490;7.310;2023-02-15T01:12:46;20.52;;;12.23;;
53765;SDS011;39682;51.490;7.310;2023-02-15T01:15:13;26.00;;;12.80;;
53765;SDS011;39682;51.490;7.310;2023-02-15T01:17:39;28.92;;;14.40;;
53765;SDS011;39682;51.490;7.310;2023-02-15T01:20:05;24.77;;;13.48;;
53765;SDS011;39682;51.490;7.310;2023-02-15T01:22:31;22.08;;;13.02;;
53765;SDS011;39682;51.490;7.310;2023-02-15T01:24:57;29.98;;;14.00;;
53765;SDS011;39682;51.490;7.310;2023-02-15T01:27:23;26.52;;;13.82;;
53765;SDS011;39682;51.490;7.310;2023-02-15T01:29:49;26.40;;;13.52;;
53765;SDS011;39682;51.490;7.310;2023-02-15T01:32:15;26.73;;;14.40;;
53765;SDS011;39682;51.490;7.310;2023-02-15T01:34:41;25.90;;;14.00;;
53765;SDS011;39682;51.490;7.310;2023-02-15T01:37:07;26.15;;;13.85;;
53765;SDS011;39682;51.490;7.310;2023-02-15T01:39:33;25.95;;;12.82;;
53765;SDS011;39682;51.490;7.310;2023-02-15T01:41:59;25.92;;;14.63;;
53765;SDS011;39682;51.490;7.310;2023-02-15T01:44:45;27.33;;;14.52;;
53765;SDS011;39682;51.490;7.310;2023-02-15T01:47:12;28.05;;;13.70;;
53765;SDS011;39682;51.490;7.310;2023-02-15T01:49:40;24.52;;;14.32;;
53765;SDS011;39682;51.490;7.310;2023-02-15T01:52:08;30.48;;;14.95;;
53765;SDS011;39682;51.490;7.310;2023-02-15T01:54:35;28.33;;;14.82;;
53765;SDS011;39682;51.490;7.310;2023-02-15T01:57:03;28.45;;;14.43;;
53765;SDS011;39682;51.490;7.310;2023-02-15T01:59:30;27.17;;;13.60;;
53765;SDS011;39682;51.490;7.310;2023-02-15T02:01:57;30.05;;;14.95;;
53765;SDS011;39682;51.490;7.310;2023-02-15T02:04:26;30.30;;;15.23;;
53765;SDS011;39682;51.490;7.310;2023-02-15T02:06:54;32.22;;;15.38;;
53765;SDS011;39682;51.490;7.310;2023-02-15T02:09:22;31.30;;;16.13;;
53765;SDS011;39682;51.490;7.310;2023-02-15T02:11:48;31.52;;;15.43;;
53765;SDS011;39682;51.490;7.310;2023-02-15T02:14:15;26.85;;;15.13;;
53765;SDS011;39682;51.490;7.310;2023-02-15T02:27:05;29.95;;;14.43;;
53765;SDS011;39682;51.490;7.310;2023-02-15T02:34:58;35.85;;;17.48;;
53765;SDS011;39682;51.490;7.310;2023-02-15T02:37:44;34.83;;;18.13;;
53765;SDS011;39682;51.490;7.310;2023-02-15T02:42:44;111.40;;;44.08;;
53765;SDS011;39682;51.490;7.310;2023-02-15T02:45:16;63.47;;;27.80;;
53765;SDS011;39682;51.490;7.310;2023-02-15T02:47:49;58.92;;;29.40;;
53765;SDS011;39682;51.490;7.310;2023-02-15T02:50:24;58.55;;;27.45;;
53765;SDS011;39682;51.490;7.310;2023-02-15T02:52:51;47.58;;;22.85;;
53765;SDS011;39682;51.490;7.310;2023-02-15T02:55:20;36.38;;;19.13;;
53765;SDS011;39682;51.490;7.310;2023-02-15T02:57:52;36.85;;;18.67;;
53765;SDS011;39682;51.490;7.310;2023-02-15T03:00:19;36.30;;;18.13;;
53765;SDS011;39682;51.490;7.310;2023-02-15T03:02:47;40.75;;;22.23;;
53765;SDS011;39682;51.490;7.310;2023-02-15T03:05:15;45.10;;;22.13;;
53765;SDS011;39682;51.490;7.310;2023-02-15T03:07:42;40.38;;;19.30;;
53765;SDS011;39682;51.490;7.310;2023-02-15T03:10:11;35.17;;;17.45;;
53765;SDS011;39682;51.490;7.310;2023-02-15T03:12:38;39.78;;;18.80;;
53765;SDS011;39682;51.490;7.310;2023-02-15T03:15:13;36.60;;;18.17;;
53765;SDS011;39682;51.490;7.310;2023-02-15T03:17:41;41.67;;;18.95;;
53765;SDS011;39682;51.490;7.310;2023-02-15T03:20:09;38.67;;;17.95;;
53765;SDS011;39682;51.490;7.310;2023-02-15T03:22:38;36.20;;;18.63;;
53765;SDS011;39682;51.490;7.310;2023-02-15T03:27:31;38.90;;;18.25;;
53765;SDS011;39682;51.490;7.310;2023-02-15T03:29:59;38.13;;;18.20;;
53765;SDS011;39682;51.490;7.310;2023-02-15T03:32:25;39.13;;;18.58;;
53765;SDS011;39682;51.490;7.310;2023-02-15T03:34:53;34.50;;;16.98;;
53765;SDS011;39682;51.490;7.310;2023-02-15T03:39:52;27.30;;;15.55;;
53765;SDS011;39682;51.490;7.310;2023-02-15T03:42:25;28.70;;;14.52;;
53765;SDS011;39682;51.490;7.310;2023-02-15T03:45:05;31.95;;;16.40;;
53765;SDS011;39682;51.490;7.310;2023-02-15T03:47:35;31.55;;;16.02;;
53765;SDS011;39682;51.490;7.310;2023-02-15T03:50:03;29.38;;;14.75;;
53765;SDS011;39682;51.490;7.310;2023-02-15T03:52:51;33.42;;;16.55;;
53765;SDS011;39682;51.490;7.310;2023-02-15T03:55:17;36.55;;;18.08;;
53765;SDS011;39682;51.490;7.310;2023-02-15T03:57:43;33.40;;;17.08;;
53765;SDS011;39682;51.490;7.310;2023-02-15T04:00:28;34.85;;;16.25;;
53765;SDS011;39682;51.490;7.310;2023-02-15T04:03:26;39.90;;;17.67;;
53765;SDS011;39682;51.490;7.310;2023-02-15T04:05:56;57.88;;;26.00;;
53765;SDS011;39682;51.490;7.310;2023-02-15T04:08:22;40.70;;;20.15;;
53765;SDS011;39682;51.490;7.310;2023-02-15T04:11:08;38.25;;;18.70;;
53765;SDS011;39682;51.490;7.310;2023-02-15T04:13:34;38.40;;;18.67;;
53765;SDS011;39682;51.490;7.310;2023-02-15T04:16:00;37.65;;;18.20;;
53765;SDS011;39682;51.490;7.310;2023-02-15T04:18:30;36.30;;;17.17;;
53765;SDS011;39682;51.490;7.310;2023-02-15T04:21:15;45.00;;;20.33;;
53765;SDS011;39682;51.490;7.310;2023-02-15T04:23:59;37.30;;;18.58;;
53765;SDS011;39682;51.490;7.310;2023-02-15T04:26:44;48.17;;;22.48;;
53765;SDS011;39682;51.490;7.310;2023-02-15T04:29:12;55.17;;;24.90;;
53765;SDS011;39682;51.490;7.310;2023-02-15T04:31:38;47.90;;;22.05;;
53765;SDS011;39682;51.490;7.310;2023-02-15T04:34:04;34.75;;;16.48;;
53765;SDS011;39682;51.490;7.310;2023-02-15T04:36:30;28.52;;;16.00;;
53765;SDS011;39682;51.490;7.310;2023-02-15T04:38:56;32.10;;;17.50;;
53765;SDS011;39682;51.490;7.310;2023-02-15T04:41:22;31.02;;;15.25;;
53765;SDS011;39682;51.490;7.310;2023-02-15T04:43:48;36.33;;;17.48;;
53765;SDS011;39682;51.490;7.310;2023-02-15T04:46:14;34.53;;;18.08;;
53765;SDS011;39682;51.490;7.310;2023-02-15T04:48:40;33.45;;;16.23;;
53765;SDS011;39682;51.490;7.310;2023-02-15T04:51:06;37.70;;;18.60;;
53765;SDS011;39682;51.490;7.310;2023-02-15T04:53:32;32.55;;;16.75;;
53765;SDS011;39682;51.490;7.310;2023-02-15T04:55:58;35.72;;;17.13;;
53765;SDS011;39682;51.490;7.310;2023-02-15T04:58:24;32.58;;;17.98;;
53765;SDS011;39682;51.490;7.310;2023-02-15T05:00:50;43.58;;;18.83;;
53765;SDS011;39682;51.490;7.310;2023-02-15T05:03:16;136.75;;;43.17;;
53765;SDS011;39682;51.490;7.310;2023-02-15T05:05:42;128.75;;;42.88;;
53765;SDS011;39682;51.490;7.310;2023-02-15T05:08:08;91.57;;;38.42;;
53765;SDS011;39682;51.490;7.310;2023-02-15T05:10:34;82.97;;;34.97;;
53765;SDS011;39682;51.490;7.310;2023-02-15T05:13:00;61.83;;;26.92;;
53765;SDS011;39682;51.490;7.310;2023-02-15T05:15:26;57.75;;;25.60;;
53765;SDS011;39682;51.490;7.310;2023-02-15T05:17:52;47.55;;;22.75;;
53765;SDS011;39682;51.490;7.310;2023-02-15T05:20:18;36.63;;;18.95;;
53765;SDS011;39682;51.490;7.310;2023-02-15T05:22:44;39.03;;;19.50;;
53765;SDS011;39682;51.490;7.310;2023-02-15T05:25:10;47.38;;;20.55;;
53765;SDS011;39682;51.490;7.310;2023-02-15T05:27:54;75.70;;;30.67;;
53765;SDS011;39682;51.490;7.310;2023-02-15T05:30:39;66.20;;;29.90;;
53765;SDS011;39682;51.490;7.310;2023-02-15T05:33:05;70.90;;;29.10;;
53765;SDS011;39682;51.490;7.310;2023-02-15T05:35:32;76.05;;;31.88;;
53765;SDS011;39682;51.490;7.310;2023-02-15T05:37:58;70.43;;;30.10;;
53765;SDS011;39682;51.490;7.310;2023-02-15T05:40:24;57.30;;;25.95;;
53765;SDS011;39682;51.490;7.310;2023-02-15T05:42:50;52.60;;;23.67;;
53765;SDS011;39682;51.490;7.310;2023-02-15T05:45:16;49.22;;;23.83;;
53765;SDS011;39682;51.490;7.310;2023-02-15T05:47:42;67.25;;;29.00;;
53765;SDS011;39682;51.490;7.310;2023-02-15T05:50:08;65.72;;;29.60;;
53765;SDS011;39682;51.490;7.310;2023-02-15T05:52:35;64.68;;;28.40;;
53765;SDS011;39682;51.490;7.310;2023-02-15T05:55:01;47.92;;;23.13;;
53765;SDS011;39682;51.490;7.310;2023-02-15T05:57:27;53.30;;;23.73;;
53765;SDS011;39682;51.490;7.310;2023-02-15T05:59:53;41.83;;;20.92;;
53765;SDS011;39682;51.490;7.310;2023-02-15T06:02:19;48.97;;;22.02;;
53765;SDS011;39682;51.490;7.310;2023-02-15T06:04:45;53.83;;;24.15;;
53765;SDS011;39682;51.490;7.310;2023-02-15T06:07:11;49.72;;;23.75;;
53765;SDS011;39682;51.490;7.310;2023-02-15T06:09:37;63.63;;;27.27;;
53765;SDS011;39682;51.490;7.310;2023-02-15T06:12:03;54.50;;;23.70;;
53765;SDS011;39682;51.490;7.310;2023-02-15T06:14:29;52.78;;;22.25;;
53765;SDS011;39682;51.490;7.310;2023-02-15T06:16:55;43.80;;;21.73;;
53765;SDS011;39682;51.490;7.310;2023-02-15T06:19:21;49.88;;;19.85;;
53765;SDS011;39682;51.490;7.310;2023-02-15T06:21:47;37.83;;;18.13;;
53765;SDS011;39682;51.490;7.310;2023-02-15T06:24:13;37.65;;;18.55;;
53765;SDS011;39682;51.490;7.310;2023-02-15T06:26:39;38.88;;;18.90;;
53765;SDS011;39682;51.490;7.310;2023-02-15T06:29:05;35.53;;;18.35;;
53765;SDS011;39682;51.490;7.310;2023-02-15T06:31:32;42.70;;;20.98;;
53765;SDS011;39682;51.490;7.310;2023-02-15T06:33:57;48.97;;;23.63;;
53765;SDS011;39682;51.490;7.310;2023-02-15T06:36:29;64.70;;;28.83;;
53765;SDS011;39682;51.490;7.310;2023-02-15T06:38:56;69.40;;;27.90;;
53765;SDS011;39682;51.490;7.310;2023-02-15T06:41:22;61.30;;;24.90;;
53765;SDS011;39682;51.490;7.310;2023-02-15T06:43:49;45.90;;;21.02;;
53765;SDS011;39682;51.490;7.310;2023-02-15T06:46:15;40.70;;;20.25;;
53765;SDS011;39682;51.490;7.310;2023-02-15T06:48:41;47.90;;;19.05;;
53765;SDS011;39682;51.490;7.310;2023-02-15T06:51:07;39.67;;;18.38;;
53765;SDS011;39682;51.490;7.310;2023-02-15T06:53:33;36.70;;;17.92;;
53765;SDS011;39682;51.490;7.310;2023-02-15T06:56:04;41.55;;;19.27;;
53765;SDS011;39682;51.490;7.310;2023-02-15T06:58:38;42.70;;;18.38;;
53765;SDS011;39682;51.490;7.310;2023-02-15T07:01:04;44.13;;;19.85;;
53765;SDS011;39682;51.490;7.310;2023-02-15T07:03:30;40.22;;;20.10;;
53765;SDS011;39682;51.490;7.310;2023-02-15T07:05:57;35.92;;;18.02;;
53765;SDS011;39682;51.490;7.310;2023-02-15T07:08:24;48.15;;;20.25;;
53765;SDS011;39682;51.490;7.310;2023-02-15T07:10:50;38.28;;;19.30;;
53765;SDS011;39682;51.490;7.310;2023-02-15T07:13:17;38.97;;;19.75;;
53765;SDS011;39682;51.490;7.310;2023-02-15T07:15:43;42.83;;;20.02;;
53765;SDS011;39682;51.490;7.310;2023-02-15T07:18:09;40.85;;;19.13;;
53765;SDS011;39682;51.490;7.310;2023-02-15T07:20:35;43.25;;;20.55;;
53765;SDS011;39682;51.490;7.310;2023-02-15T07:23:02;49.08;;;22.98;;
53765;SDS011;39682;51.490;7.310;2023-02-15T07:25:28;52.20;;;24.33;;
53765;SDS011;39682;51.490;7.310;2023-02-15T07:28:01;50.22;;;23.35;;
53765;SDS011;39682;51.490;7.310;2023-02-15T07:30:27;47.42;;;23.23;;
53765;SDS011;39682;51.490;7.310;2023-02-15T07:32:57;44.17;;;21.05;;
53765;SDS011;39682;51.490;7.310;2023-02-15T07:35:48;43.92;;;21.30;;
53765;SDS011;39682;51.490;7.310;2023-02-15T07:38:15;42.33;;;21.95;;
53765;SDS011;39682;51.490;7.310;2023-02-15T07:40:40;48.03;;;22.20;;
53765;SDS011;39682;51.490;7.310;2023-02-15T07:43:06;51.97;;;26.35;;
53765;SDS011;39682;51.490;7.310;2023-02-15T07:45:32;49.15;;;25.40;;
53765;SDS011;39682;51.490;7.310;2023-02-15T07:48:00;44.10;;;21.98;;
53765;SDS011;39682;51.490;7.310;2023-02-15T07:50:26;47.53;;;23.30;;
53765;SDS011;39682;51.490;7.310;2023-02-15T07:52:52;45.08;;;22.10;;
53765;SDS011;39682;51.490;7.310;2023-02-15T07:55:18;50.33;;;26.98;;
53765;SDS011;39682;51.490;7.310;2023-02-15T07:57:44;45.08;;;25.52;;
53765;SDS011;39682;51.490;7.310;2023-02-15T08:00:11;46.22;;;24.38;;
53765;SDS011;39682;51.490;7.310;2023-02-15T08:02:38;43.25;;;23.83;;
53765;SDS011;39682;51.490;7.310;2023-02-15T08:05:04;40.13;;;21.65;;
53765;SDS011;39682;51.490;7.310;2023-02-15T08:07:30;37.35;;;19.17;;
53765;SDS011;39682;51.490;7.310;2023-02-15T08:09:56;35.25;;;18.92;;
53765;SDS011;39682;51.490;7.310;2023-02-15T08:12:22;34.58;;;18.40;;
53765;SDS011;39682;51.490;7.310;2023-02-15T08:14:48;33.85;;;18.70;;
53765;SDS011;39682;51.490;7.310;2023-02-15T08:17:14;29.80;;;16.10;;
53765;SDS011;39682;51.490;7.310;2023-02-15T08:19:40;35.75;;;16.33;;
53765;SDS011;39682;51.490;7.310;2023-02-15T08:22:06;29.90;;;16.15;;
53765;SDS011;39682;51.490;7.310;2023-02-15T08:24:35;34.65;;;18.23;;
53765;SDS011;39682;51.490;7.310;2023-02-15T08:27:05;29.38;;;15.15;;
53765;SDS011;39682;51.490;7.310;2023-02-15T08:29:32;28.90;;;15.95;;
53765;SDS011;39682;51.490;7.310;2023-02-15T08:32:00;32.97;;;16.70;;
53765;SDS011;39682;51.490;7.310;2023-02-15T08:34:36;27.45;;;14.85;;
53765;SDS011;39682;51.490;7.310;2023-02-15T08:37:03;28.45;;;15.65;;
53765;SDS011;39682;51.490;7.310;2023-02-15T08:39:30;27.75;;;15.48;;
53765;SDS011;39682;51.490;7.310;2023-02-15T08:41:56;30.30;;;16.85;;
53765;SDS011;39682;51.490;7.310;2023-02-15T08:44:22;29.63;;;16.08;;
53765;SDS011;39682;51.490;7.310;2023-02-15T08:46:48;28.15;;;14.50;;
53765;SDS011;39682;51.490;7.310;2023-02-15T08:49:16;29.13;;;15.65;;
53765;SDS011;39682;51.490;7.310;2023-02-15T08:51:42;28.02;;;14.80;;
53765;SDS011;39682;51.490;7.310;2023-02-15T08:54:09;25.90;;;13.80;;
53765;SDS011;39682;51.490;7.310;2023-02-15T08:56:36;24.83;;;13.95;;
53765;SDS011;39682;51.490;7.310;2023-02-15T08:59:03;25.45;;;13.50;;
53765;SDS011;39682;51.490;7.310;2023-02-15T09:01:30;24.80;;;13.77;;
53765;SDS011;39682;51.490;7.310;2023-02-15T09:03:57;27.42;;;14.15;;
53765;SDS011;39682;51.490;7.310;2023-02-15T09:06:23;27.13;;;13.52;;
53765;SDS011;39682;51.490;7.310;2023-02-15T09:08:50;22.70;;;12.98;;
53765;SDS011;39682;51.490;7.310;2023-02-15T09:11:20;28.90;;;13.35;;
53765;SDS011;39682;51.490;7.310;2023-02-15T09:13:51;23.10;;;13.13;;
53765;SDS011;39682;51.490;7.310;2023-02-15T09:16:17;21.38;;;12.23;;
53765;SDS011;39682;51.490;7.310;2023-02-15T09:18:43;28.42;;;12.90;;
53765;SDS011;39682;51.490;7.310;2023-02-15T09:21:11;27.35;;;13.43;;
53765;SDS011;39682;51.490;7.310;2023-02-15T09:23:41;24.67;;;12.77;;
53765;SDS011;39682;51.490;7.310;2023-02-15T09:26:08;22.88;;;12.88;;
53765;SDS011;39682;51.490;7.310;2023-02-15T09:28:35;21.80;;;11.88;;
53765;SDS011;39682;51.490;7.310;2023-02-15T09:31:11;24.55;;;13.30;;
53765;SDS011;39682;51.490;7.310;2023-02-15T09:33:38;25.65;;;12.98;;
53765;SDS011;39682;51.490;7.310;2023-02-15T09:36:05;24.90;;;13.82;;
53765;SDS011;39682;51.490;7.310;2023-02-15T09:38:31;20.60;;;12.02;;
53765;SDS011;39682;51.490;7.310;2023-02-15T09:43:40;22.92;;;11.48;;
53765;SDS011;39682;51.490;7.310;2023-02-15T09:46:12;23.92;;;14.02;;
53765;SDS011;39682;51.490;7.310;2023-02-15T09:48:42;22.42;;;12.23;;
53765;SDS011;39682;51.490;7.310;2023-02-15T09:51:15;22.23;;;12.02;;
53765;SDS011;39682;51.490;7.310;2023-02-15T09:56:31;19.63;;;11.70;;
